sensor_id;sensor_type;location;lat;lon;timestamp;P1;durP1;ratioP1;P2;durP2;ratioP2
16502;SDS011;53067;48.114;11.694;2023-02-28T00:01:22;3.40;;;3.10;;
16502;SDS011;53067;48.114;11.694;2023-02-28T00:03:50;3.80;;;2.80;;
16502;SDS011;53067;48.114;11.694;2023-02-28T00:06:17;4.27;;;2.90;;
16502;SDS011;53067;48.114;11.694;2023-02-28T00:08:45;4.83;;;3.10;;
16502;SDS011;53067;48.114;11.694;2023-02-28T00:11:13;4.03;;;3.10;;
16502;SDS011;53067;48.114;11.694;2023-02-28T00:13:42;3.80;;;3.50;;
16502;SDS011;53067;48.114;11.694;2023-02-28T00:16:16;3.40;;;3.10;;
16502;SDS011;53067;48.114;11.694;2023-02-28T00:18:47;3.30;;;3.00;;
16502;SDS011;53067;48.114;11.694;2023-02-28T00:21:16;3.10;;;2.90;;
16502;SDS011;53067;48.114;11.694;2023-02-28T00:23:44;3.40;;;3.10;;
16502;SDS011;53067;48.114;11.694;2023-02-28T00:26:12;3.40;;;3.10;;
16502;SDS011;53067;48.114;11.694;2023-02-28T00:28:39;3.63;;;3.33;;
16502;SDS011;53067;48.114;11.694;2023-02-28T00:31:07;3.53;;;2.83;;
16502;SDS011;53067;48.114;11.694;2023-02-28T00:33:34;3.17;;;2.97;;
16502;SDS011;53067;48.114;11.694;2023-02-28T00:36:06;3.60;;;3.30;;
16502;SDS011;53067;48.114;11.694;2023-02-28T00:38:35;3.87;;;3.57;;
16502;SDS011;53067;48.114;11.694;2023-02-28T00:41:04;3.17;;;2.93;;
16502;SDS011;53067;48.114;11.694;2023-02-28T00:43:32;3.57;;;3.27;;
16502;SDS011;53067;48.114;11.694;2023-02-28T00:46:01;3.13;;;2.93;;
16502;SDS011;53067;48.114;11.694;2023-02-28T00:48:29;3.40;;;3.10;;
16502;SDS011;53067;48.114;11.694;2023-02-28T00:50:56;3.60;;;3.30;;
16502;SDS011;53067;48.114;11.694;2023-02-28T00:53:24;3.30;;;3.10;;
16502;SDS011;53067;48.114;11.694;2023-02-28T00:55:52;3.73;;;3.40;;
16502;SDS011;53067;48.114;11.694;2023-02-28T00:58:20;3.93;;;3.53;;
16502;SDS011;53067;48.114;11.694;2023-02-28T01:00:47;3.57;;;3.27;;
16502;SDS011;53067;48.114;11.694;2023-02-28T01:03:16;2.87;;;2.67;;
16502;SDS011;53067;48.114;11.694;2023-02-28T01:05:44;3.13;;;2.93;;
16502;SDS011;53067;48.114;11.694;2023-02-28T01:08:12;4.90;;;3.20;;
16502;SDS011;53067;48.114;11.694;2023-02-28T01:10:41;3.60;;;3.20;;
16502;SDS011;53067;48.114;11.694;2023-02-28T01:13:08;3.70;;;3.40;;
16502;SDS011;53067;48.114;11.694;2023-02-28T01:15:37;3.27;;;2.83;;
16502;SDS011;53067;48.114;11.694;2023-02-28T01:18:06;3.73;;;3.37;;
16502;SDS011;53067;48.114;11.694;2023-02-28T01:20:36;4.07;;;3.30;;
16502;SDS011;53067;48.114;11.694;2023-02-28T01:23:04;3.20;;;2.90;;
16502;SDS011;53067;48.114;11.694;2023-02-28T01:25:34;3.10;;;2.90;;
16502;SDS011;53067;48.114;11.694;2023-02-28T01:28:02;3.13;;;2.93;;
16502;SDS011;53067;48.114;11.694;2023-02-28T01:30:30;3.03;;;2.83;;
16502;SDS011;53067;48.114;11.694;2023-02-28T01:32:58;3.57;;;3.20;;
16502;SDS011;53067;48.114;11.694;2023-02-28T01:35:26;4.03;;;3.43;;
16502;SDS011;53067;48.114;11.694;2023-02-28T01:37:54;3.80;;;3.00;;
16502;SDS011;53067;48.114;11.694;2023-02-28T01:40:22;3.80;;;3.13;;
16502;SDS011;53067;48.114;11.694;2023-02-28T01:42:49;3.50;;;3.20;;
16502;SDS011;53067;48.114;11.694;2023-02-28T01:45:27;3.20;;;2.90;;
16502;SDS011;53067;48.114;11.694;2023-02-28T01:47:57;4.07;;;3.50;;
16502;SDS011;53067;48.114;11.694;2023-02-28T01:50:26;4.70;;;3.53;;
16502;SDS011;53067;48.114;11.694;2023-02-28T01:52:57;5.03;;;3.83;;
16502;SDS011;53067;48.114;11.694;2023-02-28T01:55:27;3.83;;;3.50;;
16502;SDS011;53067;48.114;11.694;2023-02-28T01:57:56;4.33;;;3.93;;
16502;SDS011;53067;48.114;11.694;2023-02-28T02:00:27;3.33;;;3.03;;
16502;SDS011;53067;48.114;11.694;2023-02-28T02:02:58;4.37;;;3.40;;
16502;SDS011;53067;48.114;11.694;2023-02-28T02:05:27;3.90;;;3.50;;
16502;SDS011;53067;48.114;11.694;2023-02-28T02:07:58;3.87;;;3.57;;
16502;SDS011;53067;48.114;11.694;2023-02-28T02:10:35;4.63;;;3.93;;
16502;SDS011;53067;48.114;11.694;2023-02-28T02:18:44;4.33;;;3.43;;
16502;SDS011;53067;48.114;11.694;2023-02-28T02:24:33;3.70;;;3.07;;
16502;SDS011;53067;48.114;11.694;2023-02-28T02:32:36;4.40;;;4.00;;
16502;SDS011;53067;48.114;11.694;2023-02-28T02:38:18;3.90;;;3.57;;
16502;SDS011;53067;48.114;11.694;2023-02-28T02:40:27;4.00;;;3.63;;
16502;SDS011;53067;48.114;11.694;2023-02-28T02:43:05;4.93;;;3.93;;
16502;SDS011;53067;48.114;11.694;2023-02-28T02:45:41;5.50;;;4.00;;
16502;SDS011;53067;48.114;11.694;2023-02-28T02:48:14;5.80;;;3.90;;
16502;SDS011;53067;48.114;11.694;2023-02-28T02:50:48;4.53;;;4.00;;
16502;SDS011;53067;48.114;11.694;2023-02-28T02:53:21;5.23;;;4.13;;
16502;SDS011;53067;48.114;11.694;2023-02-28T02:55:50;5.00;;;3.87;;
16502;SDS011;53067;48.114;11.694;2023-02-28T02:58:39;6.47;;;3.33;;
16502;SDS011;53067;48.114;11.694;2023-02-28T03:01:10;4.47;;;4.00;;
16502;SDS011;53067;48.114;11.694;2023-02-28T03:03:39;7.57;;;3.97;;
16502;SDS011;53067;48.114;11.694;2023-02-28T03:06:06;4.30;;;3.90;;
16502;SDS011;53067;48.114;11.694;2023-02-28T03:08:36;6.03;;;3.73;;
16502;SDS011;53067;48.114;11.694;2023-02-28T03:11:05;5.93;;;3.87;;
16502;SDS011;53067;48.114;11.694;2023-02-28T03:13:39;5.40;;;4.20;;
16502;SDS011;53067;48.114;11.694;2023-02-28T03:26:39;4.27;;;3.87;;
16502;SDS011;53067;48.114;11.694;2023-02-28T03:29:15;4.20;;;3.87;;
16502;SDS011;53067;48.114;11.694;2023-02-28T03:31:54;4.80;;;3.60;;
16502;SDS011;53067;48.114;11.694;2023-02-28T03:34:27;4.77;;;4.27;;
16502;SDS011;53067;48.114;11.694;2023-02-28T03:37:03;4.50;;;4.10;;
16502;SDS011;53067;48.114;11.694;2023-02-28T03:39:37;4.77;;;4.33;;
16502;SDS011;53067;48.114;11.694;2023-02-28T03:42:15;4.67;;;3.93;;
16502;SDS011;53067;48.114;11.694;2023-02-28T03:44:47;7.07;;;4.23;;
16502;SDS011;53067;48.114;11.694;2023-02-28T03:47:21;4.40;;;4.00;;
16502;SDS011;53067;48.114;11.694;2023-02-28T03:49:54;5.07;;;4.57;;
16502;SDS011;53067;48.114;11.694;2023-02-28T03:52:38;4.50;;;4.10;;
16502;SDS011;53067;48.114;11.694;2023-02-28T03:55:08;4.93;;;4.43;;
16502;SDS011;53067;48.114;11.694;2023-02-28T03:57:48;4.90;;;4.50;;
16502;SDS011;53067;48.114;11.694;2023-02-28T04:00:31;5.37;;;4.60;;
16502;SDS011;53067;48.114;11.694;2023-02-28T04:03:00;5.90;;;4.27;;
16502;SDS011;53067;48.114;11.694;2023-02-28T04:05:28;4.80;;;4.30;;
16502;SDS011;53067;48.114;11.694;2023-02-28T04:08:05;5.23;;;4.60;;
16502;SDS011;53067;48.114;11.694;2023-02-28T04:10:34;5.03;;;4.63;;
16502;SDS011;53067;48.114;11.694;2023-02-28T04:13:02;5.30;;;4.53;;
16502;SDS011;53067;48.114;11.694;2023-02-28T04:15:29;5.50;;;5.00;;
16502;SDS011;53067;48.114;11.694;2023-02-28T04:17:57;8.47;;;4.67;;
16502;SDS011;53067;48.114;11.694;2023-02-28T04:20:25;7.83;;;5.30;;
16502;SDS011;53067;48.114;11.694;2023-02-28T04:22:52;7.00;;;5.67;;
16502;SDS011;53067;48.114;11.694;2023-02-28T04:25:20;6.70;;;5.03;;
16502;SDS011;53067;48.114;11.694;2023-02-28T04:27:47;5.50;;;5.00;;
16502;SDS011;53067;48.114;11.694;2023-02-28T04:30:15;6.30;;;5.03;;
16502;SDS011;53067;48.114;11.694;2023-02-28T04:32:43;5.57;;;5.00;;
16502;SDS011;53067;48.114;11.694;2023-02-28T04:35:10;5.93;;;5.03;;
16502;SDS011;53067;48.114;11.694;2023-02-28T04:37:38;5.47;;;4.90;;
16502;SDS011;53067;48.114;11.694;2023-02-28T04:42:52;5.80;;;5.27;;
16502;SDS011;53067;48.114;11.694;2023-02-28T04:45:19;6.13;;;5.37;;
16502;SDS011;53067;48.114;11.694;2023-02-28T04:47:47;6.80;;;5.97;;
16502;SDS011;53067;48.114;11.694;2023-02-28T04:50:15;6.73;;;5.53;;
16502;SDS011;53067;48.114;11.694;2023-02-28T04:52:42;6.00;;;5.27;;
16502;SDS011;53067;48.114;11.694;2023-02-28T04:55:10;7.37;;;5.83;;
16502;SDS011;53067;48.114;11.694;2023-02-28T04:57:37;7.53;;;5.90;;
16502;SDS011;53067;48.114;11.694;2023-02-28T05:00:05;7.90;;;6.03;;
16502;SDS011;53067;48.114;11.694;2023-02-28T05:02:53;8.23;;;6.00;;
16502;SDS011;53067;48.114;11.694;2023-02-28T05:05:21;7.63;;;5.90;;
16502;SDS011;53067;48.114;11.694;2023-02-28T05:07:48;8.67;;;5.90;;
16502;SDS011;53067;48.114;11.694;2023-02-28T05:10:16;8.67;;;6.37;;
16502;SDS011;53067;48.114;11.694;2023-02-28T05:12:43;7.87;;;6.47;;
16502;SDS011;53067;48.114;11.694;2023-02-28T05:15:12;8.60;;;6.63;;
16502;SDS011;53067;48.114;11.694;2023-02-28T05:17:40;8.73;;;6.93;;
16502;SDS011;53067;48.114;11.694;2023-02-28T05:20:08;8.63;;;7.20;;
16502;SDS011;53067;48.114;11.694;2023-02-28T05:22:56;8.43;;;6.40;;
16502;SDS011;53067;48.114;11.694;2023-02-28T05:25:25;7.80;;;6.90;;
16502;SDS011;53067;48.114;11.694;2023-02-28T05:27:53;8.30;;;7.20;;
16502;SDS011;53067;48.114;11.694;2023-02-28T05:30:20;10.73;;;7.87;;
16502;SDS011;53067;48.114;11.694;2023-02-28T05:32:49;9.17;;;7.73;;
16502;SDS011;53067;48.114;11.694;2023-02-28T05:35:18;9.70;;;7.43;;
16502;SDS011;53067;48.114;11.694;2023-02-28T05:37:45;11.90;;;8.33;;
16502;SDS011;53067;48.114;11.694;2023-02-28T05:40:13;10.43;;;8.33;;
16502;SDS011;53067;48.114;11.694;2023-02-28T05:42:41;11.90;;;8.93;;
16502;SDS011;53067;48.114;11.694;2023-02-28T05:45:09;11.43;;;9.10;;
16502;SDS011;53067;48.114;11.694;2023-02-28T05:47:37;9.43;;;8.27;;
16502;SDS011;53067;48.114;11.694;2023-02-28T05:50:05;10.00;;;8.53;;
16502;SDS011;53067;48.114;11.694;2023-02-28T05:52:36;16.67;;;9.03;;
16502;SDS011;53067;48.114;11.694;2023-02-28T05:55:04;13.90;;;9.00;;
16502;SDS011;53067;48.114;11.694;2023-02-28T05:57:31;11.47;;;8.33;;
16502;SDS011;53067;48.114;11.694;2023-02-28T05:59:59;12.57;;;8.93;;
16502;SDS011;53067;48.114;11.694;2023-02-28T06:02:27;13.50;;;8.67;;
16502;SDS011;53067;48.114;11.694;2023-02-28T06:04:54;10.83;;;8.80;;
16502;SDS011;53067;48.114;11.694;2023-02-28T06:07:22;12.43;;;9.33;;
16502;SDS011;53067;48.114;11.694;2023-02-28T06:09:49;17.83;;;8.90;;
16502;SDS011;53067;48.114;11.694;2023-02-28T06:12:17;12.67;;;9.00;;
16502;SDS011;53067;48.114;11.694;2023-02-28T06:14:44;10.77;;;9.07;;
16502;SDS011;53067;48.114;11.694;2023-02-28T06:17:12;11.03;;;8.70;;
16502;SDS011;53067;48.114;11.694;2023-02-28T06:19:39;10.60;;;9.27;;
16502;SDS011;53067;48.114;11.694;2023-02-28T06:22:07;13.43;;;8.87;;
16502;SDS011;53067;48.114;11.694;2023-02-28T06:24:34;13.00;;;9.70;;
16502;SDS011;53067;48.114;11.694;2023-02-28T06:27:02;11.33;;;8.77;;
16502;SDS011;53067;48.114;11.694;2023-02-28T06:29:31;11.13;;;9.33;;
16502;SDS011;53067;48.114;11.694;2023-02-28T06:31:59;11.30;;;8.90;;
16502;SDS011;53067;48.114;11.694;2023-02-28T06:34:27;13.07;;;8.90;;
16502;SDS011;53067;48.114;11.694;2023-02-28T06:36:55;11.20;;;9.67;;
16502;SDS011;53067;48.114;11.694;2023-02-28T06:39:22;14.30;;;8.97;;
16502;SDS011;53067;48.114;11.694;2023-02-28T06:41:50;13.20;;;9.73;;
16502;SDS011;53067;48.114;11.694;2023-02-28T06:44:18;11.73;;;9.47;;
16502;SDS011;53067;48.114;11.694;2023-02-28T06:46:46;12.73;;;9.50;;
16502;SDS011;53067;48.114;11.694;2023-02-28T06:49:13;12.33;;;8.87;;
16502;SDS011;53067;48.114;11.694;2023-02-28T06:51:42;14.20;;;9.50;;
16502;SDS011;53067;48.114;11.694;2023-02-28T06:54:13;12.00;;;9.93;;
16502;SDS011;53067;48.114;11.694;2023-02-28T06:56:40;14.40;;;10.03;;
16502;SDS011;53067;48.114;11.694;2023-02-28T06:59:08;10.60;;;9.30;;
16502;SDS011;53067;48.114;11.694;2023-02-28T07:01:35;13.07;;;9.63;;
16502;SDS011;53067;48.114;11.694;2023-02-28T07:04:05;13.33;;;9.43;;
16502;SDS011;53067;48.114;11.694;2023-02-28T07:06:33;16.80;;;10.03;;
16502;SDS011;53067;48.114;11.694;2023-02-28T07:09:00;12.23;;;10.27;;
16502;SDS011;53067;48.114;11.694;2023-02-28T07:11:29;12.67;;;9.73;;
16502;SDS011;53067;48.114;11.694;2023-02-28T07:13:57;13.43;;;10.30;;
16502;SDS011;53067;48.114;11.694;2023-02-28T07:16:27;16.27;;;10.90;;
16502;SDS011;53067;48.114;11.694;2023-02-28T07:18:54;12.83;;;10.10;;
16502;SDS011;53067;48.114;11.694;2023-02-28T07:21:22;13.43;;;10.23;;
16502;SDS011;53067;48.114;11.694;2023-02-28T07:23:49;14.20;;;10.43;;
16502;SDS011;53067;48.114;11.694;2023-02-28T07:26:18;14.70;;;10.97;;
16502;SDS011;53067;48.114;11.694;2023-02-28T07:28:46;14.47;;;9.77;;
16502;SDS011;53067;48.114;11.694;2023-02-28T07:31:15;15.77;;;10.33;;
16502;SDS011;53067;48.114;11.694;2023-02-28T07:33:44;18.00;;;11.17;;
16502;SDS011;53067;48.114;11.694;2023-02-28T07:36:12;18.47;;;11.07;;
16502;SDS011;53067;48.114;11.694;2023-02-28T07:38:43;16.63;;;10.47;;
16502;SDS011;53067;48.114;11.694;2023-02-28T07:41:14;15.33;;;10.63;;
16502;SDS011;53067;48.114;11.694;2023-02-28T07:43:43;15.37;;;11.00;;
16502;SDS011;53067;48.114;11.694;2023-02-28T07:46:11;16.77;;;10.60;;
16502;SDS011;53067;48.114;11.694;2023-02-28T07:48:42;15.23;;;11.00;;
16502;SDS011;53067;48.114;11.694;2023-02-28T07:51:10;14.17;;;10.30;;
16502;SDS011;53067;48.114;11.694;2023-02-28T07:53:38;14.83;;;11.20;;
16502;SDS011;53067;48.114;11.694;2023-02-28T07:56:05;13.53;;;10.53;;
16502;SDS011;53067;48.114;11.694;2023-02-28T07:58:33;11.50;;;10.27;;
16502;SDS011;53067;48.114;11.694;2023-02-28T08:01:07;14.07;;;11.10;;
16502;SDS011;53067;48.114;11.694;2023-02-28T08:03:36;13.17;;;10.20;;
16502;SDS011;53067;48.114;11.694;2023-02-28T08:06:04;12.97;;;10.30;;
16502;SDS011;53067;48.114;11.694;2023-02-28T08:08:33;13.57;;;10.67;;
16502;SDS011;53067;48.114;11.694;2023-02-28T08:11:02;15.33;;;10.73;;
16502;SDS011;53067;48.114;11.694;2023-02-28T08:13:30;12.10;;;9.90;;
16502;SDS011;53067;48.114;11.694;2023-02-28T08:15:57;12.67;;;10.40;;
16502;SDS011;53067;48.114;11.694;2023-02-28T08:18:27;13.40;;;10.67;;
16502;SDS011;53067;48.114;11.694;2023-02-28T08:20:54;13.70;;;10.37;;
16502;SDS011;53067;48.114;11.694;2023-02-28T08:23:23;14.77;;;11.33;;
16502;SDS011;53067;48.114;11.694;2023-02-28T08:25:56;13.57;;;10.33;;
16502;SDS011;53067;48.114;11.694;2023-02-28T08:28:24;15.17;;;11.17;;
16502;SDS011;53067;48.114;11.694;2023-02-28T08:30:51;17.30;;;11.80;;
16502;SDS011;53067;48.114;11.694;2023-02-28T08:33:19;17.57;;;11.27;;
16502;SDS011;53067;48.114;11.694;2023-02-28T08:35:46;16.53;;;11.20;;
16502;SDS011;53067;48.114;11.694;2023-02-28T08:38:14;11.60;;;10.40;;
16502;SDS011;53067;48.114;11.694;2023-02-28T08:40:41;14.77;;;10.70;;
16502;SDS011;53067;48.114;11.694;2023-02-28T08:43:09;20.63;;;13.17;;
16502;SDS011;53067;48.114;11.694;2023-02-28T08:45:36;16.93;;;11.17;;
16502;SDS011;53067;48.114;11.694;2023-02-28T08:48:04;14.30;;;11.53;;
16502;SDS011;53067;48.114;11.694;2023-02-28T08:50:31;15.30;;;11.50;;
16502;SDS011;53067;48.114;11.694;2023-02-28T08:52:59;13.53;;;11.80;;
16502;SDS011;53067;48.114;11.694;2023-02-28T08:55:27;13.50;;;11.23;;
16502;SDS011;53067;48.114;11.694;2023-02-28T08:57:54;16.73;;;11.23;;
16502;SDS011;53067;48.114;11.694;2023-02-28T09:00:22;14.17;;;10.63;;
16502;SDS011;53067;48.114;11.694;2023-02-28T09:02:50;13.60;;;11.03;;
16502;SDS011;53067;48.114;11.694;2023-02-28T09:05:17;15.10;;;11.97;;
16502;SDS011;53067;48.114;11.694;2023-02-28T09:07:45;15.67;;;11.80;;
16502;SDS011;53067;48.114;11.694;2023-02-28T09:10:12;15.03;;;11.87;;
16502;SDS011;53067;48.114;11.694;2023-02-28T09:12:39;13.83;;;11.37;;
16502;SDS011;53067;48.114;11.694;2023-02-28T09:15:07;14.80;;;10.60;;
16502;SDS011;53067;48.114;11.694;2023-02-28T09:17:35;17.80;;;11.40;;
16502;SDS011;53067;48.114;11.694;2023-02-28T09:20:03;14.53;;;11.03;;
16502;SDS011;53067;48.114;11.694;2023-02-28T09:22:31;13.97;;;10.97;;
16502;SDS011;53067;48.114;11.694;2023-02-28T09:24:59;16.60;;;10.80;;
16502;SDS011;53067;48.114;11.694;2023-02-28T09:27:26;13.90;;;11.40;;
16502;SDS011;53067;48.114;11.694;2023-02-28T09:29:54;13.07;;;11.13;;
16502;SDS011;53067;48.114;11.694;2023-02-28T09:32:21;12.77;;;10.23;;
16502;SDS011;53067;48.114;11.694;2023-02-28T09:34:49;12.63;;;10.77;;
16502;SDS011;53067;48.114;11.694;2023-02-28T09:37:16;13.20;;;11.07;;
16502;SDS011;53067;48.114;11.694;2023-02-28T09:39:44;14.83;;;11.23;;
16502;SDS011;53067;48.114;11.694;2023-02-28T09:42:14;13.30;;;11.10;;
16502;SDS011;53067;48.114;11.694;2023-02-28T09:44:45;12.80;;;10.47;;
16502;SDS011;53067;48.114;11.694;2023-02-28T09:47:25;12.13;;;10.60;;
16502;SDS011;53067;48.114;11.694;2023-02-28T09:50:14;15.10;;;11.13;;
16502;SDS011;53067;48.114;11.694;2023-02-28T09:52:56;17.80;;;11.40;;
16502;SDS011;53067;48.114;11.694;2023-02-28T09:58:00;18.73;;;11.70;;
16502;SDS011;53067;48.114;11.694;2023-02-28T10:00:30;16.90;;;10.63;;
16502;SDS011;53067;48.114;11.694;2023-02-28T10:05:50;13.20;;;11.03;;
16502;SDS011;53067;48.114;11.694;2023-02-28T10:08:29;15.37;;;11.77;;
16502;SDS011;53067;48.114;11.694;2023-02-28T10:10:59;14.37;;;11.33;;
16502;SDS011;53067;48.114;11.694;2023-02-28T10:13:39;13.63;;;11.13;;
16502;SDS011;53067;48.114;11.694;2023-02-28T10:16:11;12.50;;;10.97;;
16502;SDS011;53067;48.114;11.694;2023-02-28T10:18:47;12.57;;;10.47;;
16502;SDS011;53067;48.114;11.694;2023-02-28T10:21:34;11.87;;;10.70;;
16502;SDS011;53067;48.114;11.694;2023-02-28T10:24:03;12.70;;;10.43;;
16502;SDS011;53067;48.114;11.694;2023-02-28T10:26:45;13.00;;;10.77;;
16502;SDS011;53067;48.114;11.694;2023-02-28T10:29:14;14.43;;;10.97;;
16502;SDS011;53067;48.114;11.694;2023-02-28T10:31:42;13.07;;;10.67;;
16502;SDS011;53067;48.114;11.694;2023-02-28T10:34:11;15.23;;;11.40;;
16502;SDS011;53067;48.114;11.694;2023-02-28T10:36:39;13.27;;;11.03;;
16502;SDS011;53067;48.114;11.694;2023-02-28T10:42:03;15.00;;;11.03;;
16502;SDS011;53067;48.114;11.694;2023-02-28T10:44:32;12.70;;;10.70;;
16502;SDS011;53067;48.114;11.694;2023-02-28T10:46:59;14.33;;;11.43;;
16502;SDS011;53067;48.114;11.694;2023-02-28T10:49:28;15.57;;;10.60;;
16502;SDS011;53067;48.114;11.694;2023-02-28T10:51:57;15.00;;;10.93;;
16502;SDS011;53067;48.114;11.694;2023-02-28T10:54:30;12.37;;;10.63;;
16502;SDS011;53067;48.114;11.694;2023-02-28T10:57:07;16.27;;;11.10;;
16502;SDS011;53067;48.114;11.694;2023-02-28T10:59:46;14.90;;;10.50;;
16502;SDS011;53067;48.114;11.694;2023-02-28T11:02:29;12.17;;;10.87;;
16502;SDS011;53067;48.114;11.694;2023-02-28T11:04:59;13.30;;;10.80;;
16502;SDS011;53067;48.114;11.694;2023-02-28T11:07:26;17.03;;;11.93;;
16502;SDS011;53067;48.114;11.694;2023-02-28T11:09:55;15.40;;;10.67;;
16502;SDS011;53067;48.114;11.694;2023-02-28T11:12:37;12.20;;;10.20;;
16502;SDS011;53067;48.114;11.694;2023-02-28T11:15:24;12.37;;;10.67;;
16502;SDS011;53067;48.114;11.694;2023-02-28T11:18:06;14.67;;;11.10;;
16502;SDS011;53067;48.114;11.694;2023-02-28T11:20:52;14.20;;;10.33;;
16502;SDS011;53067;48.114;11.694;2023-02-28T11:23:21;14.37;;;11.03;;
16502;SDS011;53067;48.114;11.694;2023-02-28T11:25:52;17.00;;;10.63;;
16502;SDS011;53067;48.114;11.694;2023-02-28T11:28:28;16.17;;;11.03;;
16502;SDS011;53067;48.114;11.694;2023-02-28T11:31:00;14.13;;;10.73;;
16502;SDS011;53067;48.114;11.694;2023-02-28T11:33:30;12.27;;;10.50;;
16502;SDS011;53067;48.114;11.694;2023-02-28T11:36:04;11.77;;;10.57;;
16502;SDS011;53067;48.114;11.694;2023-02-28T11:38:34;14.73;;;11.67;;
16502;SDS011;53067;48.114;11.694;2023-02-28T11:41:05;17.13;;;10.60;;
16502;SDS011;53067;48.114;11.694;2023-02-28T11:43:39;14.30;;;10.53;;
16502;SDS011;53067;48.114;11.694;2023-02-28T11:46:16;12.00;;;10.70;;
16502;SDS011;53067;48.114;11.694;2023-02-28T11:51:34;12.37;;;10.60;;
16502;SDS011;53067;48.114;11.694;2023-02-28T11:56:38;12.10;;;9.53;;
16502;SDS011;53067;48.114;11.694;2023-02-28T12:05:17;13.50;;;10.40;;
16502;SDS011;53067;48.114;11.694;2023-02-28T12:10:53;11.43;;;10.33;;
16502;SDS011;53067;48.114;11.694;2023-02-28T12:13:24;11.30;;;10.20;;
16502;SDS011;53067;48.114;11.694;2023-02-28T12:21:40;10.10;;;9.30;;
16502;SDS011;53067;48.114;11.694;2023-02-28T12:24:37;10.90;;;9.90;;
16502;SDS011;53067;48.114;11.694;2023-02-28T12:27:10;9.85;;;9.05;;
16502;SDS011;53067;48.114;11.694;2023-02-28T12:32:38;11.40;;;10.40;;
16502;SDS011;53067;48.114;11.694;2023-02-28T12:35:21;12.70;;;10.43;;
16502;SDS011;53067;48.114;11.694;2023-02-28T12:37:45;11.67;;;10.57;;
16502;SDS011;53067;48.114;11.694;2023-02-28T12:40:22;11.03;;;10.03;;
16502;SDS011;53067;48.114;11.694;2023-02-28T12:42:58;11.50;;;10.30;;
16502;SDS011;53067;48.114;11.694;2023-02-28T12:45:39;10.93;;;9.90;;
16502;SDS011;53067;48.114;11.694;2023-02-28T12:48:06;10.63;;;9.50;;
16502;SDS011;53067;48.114;11.694;2023-02-28T12:50:36;10.30;;;9.30;;
16502;SDS011;53067;48.114;11.694;2023-02-28T12:53:09;10.80;;;9.20;;
16502;SDS011;53067;48.114;11.694;2023-02-28T12:58:17;10.67;;;9.57;;
16502;SDS011;53067;48.114;11.694;2023-02-28T13:09:20;12.77;;;9.97;;
16502;SDS011;53067;48.114;11.694;2023-02-28T13:11:48;19.03;;;10.23;;
16502;SDS011;53067;48.114;11.694;2023-02-28T13:14:28;12.07;;;10.70;;
16502;SDS011;53067;48.114;11.694;2023-02-28T13:19:42;10.57;;;9.47;;
16502;SDS011;53067;48.114;11.694;2023-02-28T13:22:16;11.50;;;10.00;;
16502;SDS011;53067;48.114;11.694;2023-02-28T13:24:45;12.83;;;9.67;;
16502;SDS011;53067;48.114;11.694;2023-02-28T13:29:54;10.50;;;9.13;;
16502;SDS011;53067;48.114;11.694;2023-02-28T13:37:35;12.50;;;9.53;;
16502;SDS011;53067;48.114;11.694;2023-02-28T13:42:56;11.87;;;10.43;;
16502;SDS011;53067;48.114;11.694;2023-02-28T13:45:27;11.73;;;9.53;;
16502;SDS011;53067;48.114;11.694;2023-02-28T13:47:58;16.57;;;10.27;;
16502;SDS011;53067;48.114;11.694;2023-02-28T13:50:30;14.17;;;10.20;;
16502;SDS011;53067;48.114;11.694;2023-02-28T13:58:53;11.33;;;9.60;;
16502;SDS011;53067;48.114;11.694;2023-02-28T14:01:40;10.70;;;9.60;;
16502;SDS011;53067;48.114;11.694;2023-02-28T14:07:06;11.13;;;9.53;;
16502;SDS011;53067;48.114;11.694;2023-02-28T14:09:35;10.93;;;9.57;;
16502;SDS011;53067;48.114;11.694;2023-02-28T14:15:30;12.03;;;9.27;;
16502;SDS011;53067;48.114;11.694;2023-02-28T14:18:02;12.77;;;9.60;;
16502;SDS011;53067;48.114;11.694;2023-02-28T14:20:32;11.40;;;9.63;;
16502;SDS011;53067;48.114;11.694;2023-02-28T14:23:09;11.23;;;9.30;;
16502;SDS011;53067;48.114;11.694;2023-02-28T14:28:38;10.27;;;9.17;;
16502;SDS011;53067;48.114;11.694;2023-02-28T14:31:06;12.17;;;8.87;;
16502;SDS011;53067;48.114;11.694;2023-02-28T14:34:04;10.40;;;8.53;;
16502;SDS011;53067;48.114;11.694;2023-02-28T14:36:47;10.97;;;9.03;;
16502;SDS011;53067;48.114;11.694;2023-02-28T14:39:16;13.57;;;9.63;;
16502;SDS011;53067;48.114;11.694;2023-02-28T14:41:48;10.50;;;9.40;;
16502;SDS011;53067;48.114;11.694;2023-02-28T14:44:18;9.70;;;8.70;;
16502;SDS011;53067;48.114;11.694;2023-02-28T14:46:50;11.40;;;9.13;;
16502;SDS011;53067;48.114;11.694;2023-02-28T14:49:32;10.53;;;9.00;;
16502;SDS011;53067;48.114;11.694;2023-02-28T14:52:02;10.50;;;8.20;;
16502;SDS011;53067;48.114;11.694;2023-02-28T14:54:36;12.43;;;9.20;;
16502;SDS011;53067;48.114;11.694;2023-02-28T14:57:04;13.03;;;9.60;;
16502;SDS011;53067;48.114;11.694;2023-02-28T14:59:33;11.77;;;8.97;;
16502;SDS011;53067;48.114;11.694;2023-02-28T15:02:18;10.20;;;8.50;;
16502;SDS011;53067;48.114;11.694;2023-02-28T15:04:59;12.13;;;8.50;;
16502;SDS011;53067;48.114;11.694;2023-02-28T15:07:24;11.33;;;9.17;;
16502;SDS011;53067;48.114;11.694;2023-02-28T15:12:51;13.33;;;8.63;;
16502;SDS011;53067;48.114;11.694;2023-02-28T15:15:33;11.30;;;8.90;;
16502;SDS011;53067;48.114;11.694;2023-02-28T15:18:01;11.13;;;9.00;;
16502;SDS011;53067;48.114;11.694;2023-02-28T15:20:32;9.47;;;8.53;;
16502;SDS011;53067;48.114;11.694;2023-02-28T15:23:01;9.57;;;8.67;;
16502;SDS011;53067;48.114;11.694;2023-02-28T15:25:29;9.10;;;8.20;;
16502;SDS011;53067;48.114;11.694;2023-02-28T15:27:57;13.47;;;9.13;;
16502;SDS011;53067;48.114;11.694;2023-02-28T15:30:25;10.97;;;9.13;;
16502;SDS011;53067;48.114;11.694;2023-02-28T15:33:18;12.57;;;9.57;;
16502;SDS011;53067;48.114;11.694;2023-02-28T15:35:46;14.23;;;9.33;;
16502;SDS011;53067;48.114;11.694;2023-02-28T15:38:25;10.20;;;8.93;;
16502;SDS011;53067;48.114;11.694;2023-02-28T15:40:46;12.60;;;9.70;;
16502;SDS011;53067;48.114;11.694;2023-02-28T15:43:28;10.47;;;8.80;;
16502;SDS011;53067;48.114;11.694;2023-02-28T15:46:06;10.20;;;8.80;;
16502;SDS011;53067;48.114;11.694;2023-02-28T15:48:36;13.37;;;9.33;;
16502;SDS011;53067;48.114;11.694;2023-02-28T15:51:32;12.00;;;9.03;;
16502;SDS011;53067;48.114;11.694;2023-02-28T15:54:01;9.70;;;8.37;;
16502;SDS011;53067;48.114;11.694;2023-02-28T15:56:51;13.83;;;9.27;;
16502;SDS011;53067;48.114;11.694;2023-02-28T15:59:05;12.03;;;8.93;;
16502;SDS011;53067;48.114;11.694;2023-02-28T16:01:39;9.83;;;8.80;;
16502;SDS011;53067;48.114;11.694;2023-02-28T16:04:05;10.97;;;9.07;;
16502;SDS011;53067;48.114;11.694;2023-02-28T16:09:11;13.17;;;10.37;;
16502;SDS011;53067;48.114;11.694;2023-02-28T16:11:42;12.13;;;10.17;;
16502;SDS011;53067;48.114;11.694;2023-02-28T16:14:15;11.53;;;10.23;;
16502;SDS011;53067;48.114;11.694;2023-02-28T16:16:45;13.60;;;9.27;;
16502;SDS011;53067;48.114;11.694;2023-02-28T16:19:14;14.07;;;10.00;;
16502;SDS011;53067;48.114;11.694;2023-02-28T16:21:42;12.03;;;9.70;;
16502;SDS011;53067;48.114;11.694;2023-02-28T16:24:10;14.80;;;9.80;;
16502;SDS011;53067;48.114;11.694;2023-02-28T16:26:39;16.63;;;10.03;;
16502;SDS011;53067;48.114;11.694;2023-02-28T16:29:08;11.60;;;8.93;;